Time;durP1;ratioP1;P1;durP2;ratioP2;P2;SDS_P1;SDS_P2;PMS_P1;PMS_P2;Temp;Humidity;BMP_temperature;BMP_pressure;BME280_temperature;BME280_humidity;BME280_pressure;Samples;Min_cycle;Max_cycle;Signal;HPM_P1;HPM_P2
2022/05/13 00:01:24;;;;;;;9.60;3.90;;;;;;;11.94;100.00;99249.62;1626200;88;21498;-67
2022/05/13 00:03:51;;;;;;;8.38;3.98;;;;;;;11.87;100.00;99255.02;1626037;88;21069;-67
2022/05/13 00:06:17;;;;;;;8.35;3.92;;;;;;;11.82;100.00;99260.36;1626092;88;20881;-67
2022/05/13 00:08:44;;;;;;;7.03;3.52;;;;;;;11.78;100.00;99257.39;1626100;88;20964;-66
2022/05/13 00:11:11;;;;;;;16.62;4.47;;;;;;;11.73;100.00;99256.05;1626328;88;21418;-67
2022/05/13 00:13:37;;;;;;;12.33;4.22;;;;;;;11.66;100.00;99263.05;1625985;88;20897;-66
2022/05/13 00:16:05;;;;;;;14.73;4.28;;;;;;;11.59;100.00;99259.27;1626146;88;20913;-66
2022/05/13 00:18:33;;;;;;;13.70;3.98;;;;;;;11.51;100.00;99260.33;1626096;88;21004;-66
2022/05/13 00:21:00;;;;;;;6.55;3.67;;;;;;;11.40;100.00;99261.40;1626658;88;20945;-64
2022/05/13 00:23:27;;;;;;;6.53;3.95;;;;;;;11.28;100.00;99252.23;1626251;88;21458;-65
2022/05/13 00:25:54;;;;;;;13.30;4.20;;;;;;;11.15;100.00;99251.67;1626199;88;21558;-63
2022/05/13 00:28:21;;;;;;;17.57;4.12;;;;;;;11.03;100.00;99263.72;1626239;88;21035;-64
2022/05/13 00:30:49;;;;;;;18.12;4.60;;;;;;;10.87;100.00;99256.94;1626038;88;20889;-64
2022/05/13 00:33:18;;;;;;;7.78;3.85;;;;;;;10.77;100.00;99257.44;1626482;88;20969;-64
2022/05/13 00:35:44;;;;;;;9.25;4.08;;;;;;;10.73;100.00;99258.51;1626292;88;21546;-64
2022/05/13 00:38:11;;;;;;;7.65;4.00;;;;;;;10.76;100.00;99257.98;1626135;88;21028;-63
2022/05/13 00:40:38;;;;;;;8.23;3.37;;;;;;;10.75;100.00;99263.06;1626139;88;20957;-63
2022/05/13 00:43:08;;;;;;;9.35;3.70;;;;;;;10.66;100.00;99265.98;1589802;88;21039;-62
2022/05/13 00:45:34;;;;;;;11.65;3.90;;;;;;;10.69;100.00;99279.69;1626372;88;21008;-63
2022/05/13 00:48:02;;;;;;;8.28;3.12;;;;;;;10.65;100.00;99273.20;1626232;88;21346;-62
2022/05/13 00:50:32;;;;;;;10.80;2.92;;;;;;;10.64;100.00;99276.97;1626172;88;21008;-62
2022/05/13 00:52:58;;;;;;;12.23;2.92;;;;;;;10.59;100.00;99280.98;1626091;88;20957;-62
2022/05/13 00:55:36;;;;;;;8.40;3.83;;;;;;;10.48;100.00;99276.61;1626220;88;21519;-63
2022/05/13 00:58:05;;;;;;;5.37;3.70;;;;;;;10.38;100.00;99271.19;1626413;88;21005;-63
2022/05/13 01:00:32;;;;;;;6.75;3.20;;;;;;;10.25;100.00;99277.79;1626078;88;21153;-63
2022/05/13 01:03:00;;;;;;;5.62;3.95;;;;;;;10.17;100.00;99276.40;1626245;88;20944;-64
2022/05/13 01:05:28;;;;;;;6.10;3.22;;;;;;;10.09;100.00;99276.86;1626321;88;20921;-63
2022/05/13 01:07:55;;;;;;;4.97;3.97;;;;;;;10.03;100.00;99283.27;1626257;88;20937;-63
2022/05/13 01:10:25;;;;;;;5.90;3.62;;;;;;;9.98;100.00;99281.89;1626232;88;21004;-63
2022/05/13 01:12:57;;;;;;;7.50;3.50;;;;;;;9.95;100.00;99277.05;1626350;88;21161;-62
2022/05/13 01:15:28;;;;;;;9.98;3.58;;;;;;;9.85;100.00;99276.42;1626104;88;21543;-63
2022/05/13 01:18:07;;;;;;;7.30;3.58;;;;;;;9.79;100.00;99280.91;1626439;88;20925;-64
2022/05/13 01:20:47;;;;;;;7.33;3.67;;;;;;;9.78;100.00;99274.48;1626003;88;21009;-63
2022/05/13 01:23:15;;;;;;;7.37;3.47;;;;;;;9.74;100.00;99282.22;1624861;88;21018;-64
2022/05/13 01:25:46;;;;;;;8.40;3.35;;;;;;;9.74;100.00;99279.53;1626004;88;21249;-62
2022/05/13 01:28:29;;;;;;;7.60;3.72;;;;;;;9.76;100.00;99284.66;1626054;88;21076;-63
2022/05/13 01:31:00;;;;;;;5.97;3.22;;;;;;;9.73;100.00;99286.51;1625981;88;20901;-63
2022/05/13 01:33:27;;;;;;;8.73;3.75;;;;;;;9.66;100.00;99287.51;1626290;88;20960;-63
2022/05/13 01:35:58;;;;;;;6.55;2.87;;;;;;;9.65;100.00;99292.61;1626053;88;21574;-64
2022/05/13 01:38:29;;;;;;;8.68;3.47;;;;;;;9.62;100.00;99287.73;1626124;88;21836;-63
2022/05/13 01:40:56;;;;;;;8.05;3.02;;;;;;;9.58;100.00;99286.64;1626196;88;20948;-63
2022/05/13 01:43:22;;;;;;;6.85;3.35;;;;;;;9.54;100.00;99291.41;1626029;88;20917;-63
2022/05/13 01:45:52;;;;;;;4.70;3.62;;;;;;;9.47;100.00;99291.61;1626067;88;21043;-63
2022/05/13 01:48:19;;;;;;;5.97;4.00;;;;;;;9.42;100.00;99302.27;1626318;88;20937;-63
2022/05/13 01:50:45;;;;;;;9.80;3.50;;;;;;;9.40;100.00;99300.37;1626217;88;21919;-63
2022/05/13 01:53:13;;;;;;;4.95;3.65;;;;;;;9.30;100.00;99298.39;1626125;88;26585;-63
2022/05/13 01:55:42;;;;;;;10.58;3.58;;;;;;;9.17;100.00;99298.27;1626151;88;20936;-63
2022/05/13 01:58:16;;;;;;;4.83;4.00;;;;;;;9.11;100.00;99302.45;1626341;88;21016;-64
2022/05/13 02:00:45;;;;;;;5.03;3.70;;;;;;;9.06;100.00;99299.72;1625528;88;21008;-63
2022/05/13 02:05:57;;;;;;;4.20;3.55;;;;;;;8.97;100.00;99292.67;1626054;88;21494;-62
2022/05/13 02:08:25;;;;;;;11.95;4.72;;;;;;;8.89;100.00;99293.09;1626324;88;20948;-63
2022/05/13 02:10:52;;;;;;;6.55;4.45;;;;;;;8.93;100.00;99295.56;1626167;88;21060;-64
2022/05/13 02:13:18;;;;;;;6.15;4.37;;;;;;;8.86;100.00;99305.11;1626350;88;20946;-63
2022/05/13 02:15:46;;;;;;;11.22;4.72;;;;;;;8.81;100.00;99302.37;1626304;88;20944;-64
2022/05/13 02:18:13;;;;;;;6.17;4.25;;;;;;;8.76;100.00;99299.09;1626364;88;20999;-63
2022/05/13 02:20:41;;;;;;;15.38;6.00;;;;;;;8.68;100.00;99300.87;1626377;88;21083;-62
2022/05/13 02:23:08;;;;;;;7.10;4.25;;;;;;;8.61;100.00;99302.11;1626143;88;21439;-61
2022/05/13 02:25:35;;;;;;;19.98;5.50;;;;;;;8.63;100.00;99298.66;1626216;88;21008;-62
2022/05/13 02:28:03;;;;;;;7.12;5.83;;;;;;;8.68;100.00;99298.73;1626236;88;21274;-63
2022/05/13 02:30:30;;;;;;;6.20;5.15;;;;;;;8.68;100.00;99304.08;1626340;88;20912;-62
2022/05/13 02:32:58;;;;;;;5.62;4.90;;;;;;;8.68;100.00;99300.06;1626358;88;20912;-63
2022/05/13 02:35:25;;;;;;;3.98;3.58;;;;;;;8.70;100.00;99302.77;1626203;88;20987;-63
2022/05/13 02:37:52;;;;;;;5.70;4.10;;;;;;;8.67;100.00;99298.43;1626275;88;20956;-63
2022/05/13 02:40:19;;;;;;;11.48;5.03;;;;;;;8.62;100.00;99303.72;1626138;88;21283;-63
2022/05/13 02:42:46;;;;;;;11.65;5.62;;;;;;;8.54;100.00;99303.61;1626767;88;20904;-62
2022/05/13 02:45:13;;;;;;;14.78;8.28;;;;;;;8.47;100.00;99310.47;1626071;88;21000;-62
2022/05/13 02:47:41;;;;;;;9.73;5.42;;;;;;;8.42;100.00;99300.23;1626203;88;21014;-61
2022/05/13 02:50:18;;;;;;;9.03;6.17;;;;;;;8.40;100.00;99297.79;1626272;88;20970;-63
2022/05/13 02:52:46;;;;;;;33.60;21.12;;;;;;;8.42;100.00;99306.92;1626338;88;21483;-63
2022/05/13 02:55:13;;;;;;;44.03;29.92;;;;;;;8.47;100.00;99303.78;1626055;88;21008;-63
2022/05/13 02:57:40;;;;;;;50.70;31.37;;;;;;;8.56;100.00;99306.86;1626159;88;20909;-64
2022/05/13 03:00:09;;;;;;;43.33;29.87;;;;;;;8.62;100.00;99311.20;1626123;88;21540;-63
2022/05/13 03:02:36;;;;;;;30.27;22.05;;;;;;;8.66;100.00;99313.68;1626465;88;20873;-63
2022/05/13 03:05:05;;;;;;;28.00;16.80;;;;;;;8.73;100.00;99317.52;1626306;88;21271;-62
2022/05/13 03:07:32;;;;;;;;;;;;;;;8.80;100.00;99315.48;1628785;88;21080;-64
2022/05/13 03:10:00;;;;;;;9.80;7.90;;;;;;;8.87;100.00;99319.29;1626242;88;20093;-65
2022/05/13 03:12:27;;;;;;;6.37;5.47;;;;;;;8.95;100.00;99318.88;1626366;88;21001;-64
2022/05/13 03:14:54;;;;;;;7.22;5.35;;;;;;;9.07;100.00;99316.89;1626302;88;21007;-64
2022/05/13 03:17:20;;;;;;;4.72;4.12;;;;;;;9.16;100.00;99322.59;1626108;88;21468;-64
2022/05/13 03:19:47;;;;;;;4.17;3.87;;;;;;;9.26;100.00;99324.59;1626190;88;20989;-63
2022/05/13 03:22:13;;;;;;;5.30;4.12;;;;;;;9.36;100.00;99336.24;1626099;88;21549;-61
2022/05/13 03:24:41;;;;;;;6.67;3.87;;;;;;;9.43;100.00;99331.50;1626276;88;21111;-63
2022/05/13 03:27:07;;;;;;;7.92;4.10;;;;;;;9.54;100.00;99338.30;1626223;88;20941;-63
2022/05/13 03:29:38;;;;;;;6.08;4.28;;;;;;;9.64;100.00;99337.06;1626431;88;21459;-64
2022/05/13 03:32:07;;;;;;;9.43;3.85;;;;;;;9.79;100.00;99340.42;1626260;88;20945;-62
2022/05/13 03:34:38;;;;;;;10.20;4.40;;;;;;;9.91;100.00;99337.05;1626392;88;21494;-64
2022/05/13 03:37:05;;;;;;;4.65;3.47;;;;;;;10.08;100.00;99339.61;1626286;88;21486;-63
2022/05/13 03:39:32;;;;;;;10.20;4.28;;;;;;;10.30;100.00;99340.89;1626151;88;20969;-63
2022/05/13 03:41:58;;;;;;;8.70;3.67;;;;;;;10.47;100.00;99340.20;1626197;88;21351;-63
2022/05/13 03:44:25;;;;;;;5.53;3.72;;;;;;;10.58;100.00;99328.99;1626243;88;21527;-64
2022/05/13 03:46:53;;;;;;;7.87;3.85;;;;;;;10.68;100.00;99325.05;1626395;88;20996;-64
2022/05/13 03:49:19;;;;;;;8.28;4.05;;;;;;;10.78;100.00;99323.47;1626267;88;20977;-62
2022/05/13 03:51:47;;;;;;;5.30;3.45;;;;;;;10.90;100.00;99336.16;1626341;88;21498;-63
2022/05/13 03:54:13;;;;;;;9.18;3.52;;;;;;;11.05;100.00;99333.56;1626052;88;21175;-63
2022/05/13 03:56:40;;;;;;;7.55;4.08;;;;;;;11.15;100.00;99339.52;1626054;88;20933;-63
2022/05/13 03:59:07;;;;;;;10.95;4.00;;;;;;;11.28;100.00;99334.98;1626303;88;20949;-64
2022/05/13 04:01:35;;;;;;;7.62;3.27;;;;;;;11.38;100.00;99332.86;1626297;88;21554;-64
2022/05/13 04:04:02;;;;;;;4.42;3.80;;;;;;;11.40;100.00;99335.30;1626279;88;20964;-62
2022/05/13 04:09:14;;;;;;;9.00;3.15;;;;;;;11.44;100.00;99333.68;1626104;88;21008;-65
2022/05/13 04:11:42;;;;;;;7.67;2.92;;;;;;;11.53;100.00;99340.16;1626190;88;21664;-66
2022/05/13 04:16:55;;;;;;;7.85;3.60;;;;;;;11.70;100.00;99335.36;1626217;88;21075;-61
2022/05/13 04:19:24;;;;;;;8.75;3.77;;;;;;;11.79;100.00;99337.00;1626224;88;21240;-64
2022/05/13 04:21:51;;;;;;;;;;;;;;;11.95;100.00;99344.56;1628566;88;20948;-64
2022/05/13 04:24:19;;;;;;;11.70;3.00;;;;;;;12.10;100.00;99355.36;1626319;88;20085;-65
2022/05/13 04:26:46;;;;;;;7.60;2.70;;;;;;;12.28;100.00;99351.86;1626238;88;21011;-64
2022/05/13 04:29:13;;;;;;;11.90;3.45;;;;;;;12.50;100.00;99360.45;1626244;88;21609;-66
2022/05/13 04:31:41;;;;;;;3.65;2.70;;;;;;;12.69;100.00;99376.02;1626147;88;21228;-65
2022/05/13 04:34:11;;;;;;;5.08;2.50;;;;;;;12.80;100.00;99382.47;1626345;88;21458;-66
2022/05/13 04:36:39;;;;;;;2.60;2.37;;;;;;;12.96;100.00;99385.95;1626055;88;20977;-65
2022/05/13 04:39:06;;;;;;;3.87;2.40;;;;;;;13.25;100.00;99394.22;1625996;88;20941;-66
2022/05/13 04:44:19;;;;;;;8.58;3.17;;;;;;;13.74;100.00;99399.41;1626322;88;22086;-66
2022/05/13 04:46:46;;;;;;;5.17;2.75;;;;;;;13.96;100.00;99394.16;1625960;88;21482;-66
2022/05/13 04:49:13;;;;;;;7.92;3.83;;;;;;;14.03;100.00;99394.10;1626216;88;21043;-65
2022/05/13 04:51:40;;;;;;;9.60;3.77;;;;;;;13.96;100.00;99397.66;1626254;88;20957;-66
2022/05/13 04:54:08;;;;;;;7.97;3.50;;;;;;;14.00;100.00;99398.72;1626297;88;20900;-65
2022/05/13 04:56:36;;;;;;;5.92;2.70;;;;;;;14.01;100.00;99404.91;1626101;88;21476;-66
2022/05/13 04:59:03;;;;;;;6.28;3.22;;;;;;;14.05;100.00;99405.98;1626164;88;20916;-63
2022/05/13 05:01:30;;;;;;;4.87;2.72;;;;;;;14.11;100.00;99403.48;1626127;88;20944;-65
2022/05/13 05:03:56;;;;;;;8.43;2.90;;;;;;;14.13;100.00;99405.38;1626174;88;20925;-64
2022/05/13 05:06:23;;;;;;;7.53;3.47;;;;;;;14.20;100.00;99409.11;1626022;88;21013;-64
2022/05/13 05:08:50;;;;;;;9.78;4.75;;;;;;;14.31;100.00;99408.77;1626042;88;21275;-66
2022/05/13 05:11:17;;;;;;;5.17;2.90;;;;;;;14.27;100.00;99407.70;1626117;88;20897;-65
2022/05/13 05:13:49;;;;;;;3.55;2.92;;;;;;;14.20;100.00;99406.41;1626237;88;20960;-65
2022/05/13 05:16:16;;;;;;;5.08;2.90;;;;;;;14.20;100.00;99412.61;1626252;88;21008;-66
2022/05/13 05:18:43;;;;;;;13.68;6.15;;;;;;;14.37;100.00;99406.82;1626193;88;21016;-65
2022/05/13 05:21:10;;;;;;;12.43;4.53;;;;;;;14.40;100.00;99403.55;1626042;88;21495;-66
2022/05/13 05:23:40;;;;;;;4.00;2.87;;;;;;;14.42;100.00;99404.63;1626179;88;20877;-67
2022/05/13 05:26:07;;;;;;;7.35;2.98;;;;;;;14.50;100.00;99405.36;1626356;88;20908;-64
2022/05/13 05:28:37;;;;;;;;;;;;;;;14.59;100.00;99411.80;1628522;88;21060;-66
2022/05/13 05:31:05;;;;;;;4.30;2.55;;;;;;;14.75;100.00;99415.98;1626277;88;20445;-65
2022/05/13 05:33:33;;;;;;;6.15;2.17;;;;;;;14.80;100.00;99416.48;1626370;88;21318;-65
2022/05/13 05:35:59;;;;;;;2.70;2.00;;;;;;;14.82;100.00;99422.41;1626209;88;20965;-65
2022/05/13 05:38:26;;;;;;;9.03;2.00;;;;;;;14.76;100.00;99428.39;1626228;88;20941;-64
2022/05/13 05:40:55;;;;;;;2.65;1.82;;;;;;;14.86;100.00;99430.74;1626440;88;21526;-66
2022/05/13 05:43:22;;;;;;;6.28;1.80;;;;;;;15.08;100.00;99435.66;1626260;88;20964;-65
2022/05/13 05:45:49;;;;;;;4.72;2.00;;;;;;;15.41;100.00;99437.46;1626303;88;21246;-65
2022/05/13 05:48:23;;;;;;;2.60;1.87;;;;;;;15.70;99.42;99440.64;1626075;88;21423;-65
2022/05/13 05:50:52;;;;;;;3.40;1.67;;;;;;;15.84;95.28;99436.68;1626245;88;20912;-66
2022/05/13 05:58:44;;;;;;;9.60;1.70;;;;;;;15.63;94.97;99443.69;1626211;88;20992;-65
2022/05/13 06:01:10;;;;;;;6.62;1.62;;;;;;;15.93;95.12;99440.35;1626195;88;20949;-64
2022/05/13 06:03:37;;;;;;;5.58;1.95;;;;;;;16.51;81.18;99445.97;1626208;88;20948;-65
2022/05/13 06:06:05;;;;;;;4.45;2.33;;;;;;;16.74;70.44;99443.46;1626092;88;21004;-63
2022/05/13 06:08:32;;;;;;;3.35;2.83;;;;;;;16.82;66.91;99455.00;1626370;88;20997;-66
2022/05/13 06:10:59;;;;;;;7.40;2.02;;;;;;;16.69;65.82;99455.19;1626367;88;21483;-67
2022/05/13 06:13:26;;;;;;;3.20;1.47;;;;;;;16.69;65.82;99455.19;1626055;88;21494;-66
2022/05/13 06:15:52;;;;;;;3.72;1.98;;;;;;;16.48;67.81;99464.18;1626268;88;21519;-61
2022/05/13 06:18:19;;;;;;;5.45;2.05;;;;;;;16.50;69.34;99458.72;1626283;88;20924;-66
2022/05/13 06:20:46;;;;;;;2.52;1.75;;;;;;;16.50;71.64;99460.63;1589893;88;20928;-65
2022/05/13 06:23:13;;;;;;;4.08;1.70;;;;;;;16.43;72.14;99462.91;1626161;88;21172;-65
2022/05/13 06:25:42;;;;;;;3.37;1.62;;;;;;;16.38;69.66;99462.99;1626286;88;20984;-66
2022/05/13 06:28:11;;;;;;;6.28;1.98;;;;;;;16.14;71.50;99459.00;1626648;88;20921;-68
2022/05/13 06:30:38;;;;;;;6.10;2.50;;;;;;;16.30;73.45;99461.75;1626248;88;20949;-66
2022/05/13 06:33:06;;;;;;;3.17;2.00;;;;;;;16.39;70.80;99470.83;1626230;88;20917;-65
2022/05/13 06:35:35;;;;;;;11.33;3.42;;;;;;;16.57;65.25;99457.00;1626408;88;21085;-66
2022/05/13 06:38:03;;;;;;;4.17;1.53;;;;;;;16.61;69.18;99458.55;1626554;88;21056;-67
2022/05/13 06:40:31;;;;;;;3.85;1.62;;;;;;;16.60;65.84;99465.09;1626100;88;20948;-64
2022/05/13 06:42:58;;;;;;;4.70;1.90;;;;;;;16.88;66.00;99470.09;1626178;88;21013;-65
2022/05/13 06:45:25;;;;;;;5.70;2.08;;;;;;;17.21;63.17;99471.39;1626242;88;21016;-66
2022/05/13 06:47:51;;;;;;;3.30;1.50;;;;;;;16.83;63.87;99463.38;1626204;88;21175;-67
2022/05/13 06:50:19;;;;;;;4.95;1.82;;;;;;;16.83;63.87;99463.38;1626193;88;20900;-64
2022/05/13 06:52:46;;;;;;;8.53;1.67;;;;;;;16.88;63.67;99464.66;1626455;88;20999;-68
2022/05/13 06:55:15;;;;;;;6.42;1.98;;;;;;;17.24;60.25;99476.21;1626249;88;21503;-68
2022/05/13 06:57:42;;;;;;;3.52;1.70;;;;;;;17.64;57.62;99474.63;1626393;88;21042;-66
2022/05/13 07:00:11;;;;;;;5.45;2.00;;;;;;;17.85;58.35;99467.44;1626189;88;21986;-66
2022/05/13 07:02:38;;;;;;;3.52;1.40;;;;;;;17.84;53.87;99472.08;1626365;88;20953;-66
2022/05/13 07:05:07;;;;;;;5.92;1.62;;;;;;;17.97;54.23;99470.44;1626490;88;21000;-66
2022/05/13 07:07:34;;;;;;;2.22;1.40;;;;;;;17.84;55.60;99472.08;1626216;88;20992;-68
2022/05/13 07:10:01;;;;;;;3.20;1.80;;;;;;;17.79;56.43;99472.95;1626133;88;20929;-68
2022/05/13 07:12:29;;;;;;;1.70;1.10;;;;;;;17.84;54.50;99477.50;1626611;88;21326;-68
2022/05/13 07:14:55;;;;;;;3.52;1.22;;;;;;;17.71;55.00;99476.39;1626155;88;20952;-67
2022/05/13 07:17:22;;;;;;;5.20;1.75;;;;;;;17.50;56.24;99480.61;1626223;88;21009;-68
2022/05/13 07:19:49;;;;;;;4.65;2.37;;;;;;;17.28;55.45;99490.80;1626394;88;20958;-68
2022/05/13 07:22:18;;;;;;;3.95;1.52;;;;;;;16.93;56.77;99484.35;1626180;88;21012;-68
2022/05/13 07:24:45;;;;;;;3.37;1.87;;;;;;;16.74;56.28;99486.27;1626417;88;21167;-67
2022/05/13 07:27:12;;;;;;;1.67;1.52;;;;;;;16.64;57.02;99477.75;1626005;88;20999;-67
2022/05/13 07:29:40;;;;;;;5.78;1.80;;;;;;;16.47;57.98;99491.03;1626197;88;20952;-68
2022/05/13 07:32:08;;;;;;;6.42;2.70;;;;;;;16.46;58.50;99490.23;1626220;88;20928;-66
2022/05/13 07:34:37;;;;;;;5.45;3.17;;;;;;;16.58;60.16;99495.17;1626204;88;21446;-67
2022/05/13 07:37:05;;;;;;;5.33;3.00;;;;;;;16.86;61.06;99494.77;1626501;88;21193;-68
2022/05/13 07:42:17;;;;;;;2.83;1.70;;;;;;;16.88;57.25;99487.15;1626365;88;21494;-67
2022/05/13 07:44:44;;;;;;;5.80;2.45;;;;;;;16.86;57.71;99482.58;1626019;88;21522;-66
2022/05/13 07:47:11;;;;;;;2.35;1.62;;;;;;;17.17;56.53;99483.94;1626217;88;20881;-66
2022/05/13 07:49:39;;;;;;;5.67;1.77;;;;;;;17.57;58.10;99487.24;1626069;88;21180;-67
2022/05/13 07:52:06;;;;;;;3.67;1.70;;;;;;;17.32;55.70;99477.69;1626091;88;21067;-68
2022/05/13 07:54:33;;;;;;;3.77;1.45;;;;;;;17.32;55.70;99477.69;1626312;88;20928;-69
2022/05/13 07:56:59;;;;;;;4.15;1.80;;;;;;;17.06;56.71;99482.77;1626259;88;21507;-68
2022/05/13 07:59:26;;;;;;;4.58;2.15;;;;;;;17.29;58.14;99489.67;1626335;88;20916;-67
2022/05/13 08:01:54;;;;;;;4.12;1.47;;;;;;;17.53;57.90;99488.14;1626165;88;21168;-68
2022/05/13 08:04:21;;;;;;;3.42;1.85;;;;;;;17.94;57.40;99485.43;1626125;88;20975;-68
2022/05/13 08:06:47;;;;;;;2.05;1.20;;;;;;;17.94;54.04;99481.92;1626061;88;20916;-66
2022/05/13 08:09:14;;;;;;;3.65;1.30;;;;;;;17.63;55.10;99477.64;1626118;88;20988;-69
2022/05/13 08:11:43;;;;;;;13.68;1.95;;;;;;;17.64;54.77;99488.73;1626383;88;20956;-68
2022/05/13 08:14:11;;;;;;;4.58;1.82;;;;;;;17.48;55.50;99479.55;1626190;88;22000;-70
2022/05/13 08:16:38;;;;;;;4.05;1.42;;;;;;;17.56;56.67;99479.39;1626198;88;25133;-70
2022/05/13 08:19:05;;;;;;;3.90;1.62;;;;;;;17.73;55.76;99482.30;1626198;88;21007;-68
2022/05/13 08:21:32;;;;;;;7.47;1.77;;;;;;;18.00;56.62;99484.20;1626084;88;21118;-68
2022/05/13 08:23:59;;;;;;;1.72;1.45;;;;;;;18.33;54.42;99489.47;1626167;88;20973;-70
2022/05/13 08:26:26;;;;;;;9.68;2.00;;;;;;;18.39;54.17;99482.79;1590044;88;20964;-68
2022/05/13 08:28:53;;;;;;;3.70;1.77;;;;;;;18.17;54.79;99475.41;1626383;88;21013;-68
2022/05/13 08:31:20;;;;;;;3.02;1.20;;;;;;;18.41;53.73;99479.78;1649628;86;21659;-70
2022/05/13 08:33:48;;;;;;;4.33;1.90;;;;;;;18.46;52.26;99466.63;1637241;87;37884;-71
2022/05/13 08:36:14;;;;;;;4.33;1.62;;;;;;;18.33;51.10;99477.24;1637416;87;20933;-68
2022/05/13 08:38:43;;;;;;;1.82;1.05;;;;;;;18.44;51.49;99469.64;1637141;87;21131;-70
2022/05/13 08:41:24;;;;;;;5.37;1.90;;;;;;;18.58;51.55;99477.19;1637305;87;20958;-67
2022/05/13 08:43:56;;;;;;;3.65;1.35;;;;;;;19.17;51.32;99474.95;1637389;87;21439;-68
2022/05/13 08:46:37;;;;;;;4.50;1.70;;;;;;;19.44;49.07;99470.66;1640672;87;20933;-68
2022/05/13 08:49:26;;;;;;;6.25;1.50;;;;;;;19.06;49.75;99471.70;1629612;87;21021;-68
2022/05/13 08:55:11;;;;;;;3.12;1.50;;;;;;;18.92;49.79;99464.97;1637177;87;20938;-67
2022/05/13 08:57:42;;;;;;;6.20;1.22;;;;;;;19.43;48.10;99461.46;1637189;87;20961;-67
2022/05/13 09:00:15;;;;;;;5.85;1.80;;;;;;;18.89;50.03;99463.42;1637365;87;20969;-65
2022/05/13 09:02:45;;;;;;;8.15;2.00;;;;;;;19.10;48.49;99461.78;1633525;87;20969;-67
2022/05/13 09:05:36;;;;;;;3.58;1.22;;;;;;;19.34;49.13;99457.89;1637155;87;21180;-68
2022/05/13 09:08:06;;;;;;;3.87;1.50;;;;;;;19.75;46.96;99458.94;1637264;87;20965;-67
2022/05/13 09:10:42;;;;;;;3.47;1.32;;;;;;;19.64;47.66;99461.11;1637456;87;21064;-67
2022/05/13 09:13:20;;;;;;;5.35;1.82;;;;;;;19.66;47.27;99456.15;1635533;87;21432;-68
2022/05/13 09:15:53;;;;;;;8.98;1.82;;;;;;;19.35;47.86;99455.41;1637299;87;20882;-69
2022/05/13 09:18:37;;;;;;;6.03;1.92;;;;;;;19.40;47.23;99445.20;1617435;87;21247;-69
2022/05/13 09:21:15;;;;;;;5.10;2.00;;;;;;;19.46;48.15;99445.28;1636706;86;20929;-70
2022/05/13 09:23:43;;;;;;;6.20;1.57;;;;;;;19.67;48.33;99450.14;1637144;87;21060;-67
2022/05/13 09:26:20;;;;;;;8.35;1.80;;;;;;;19.38;47.37;99440.62;1637496;87;20897;-67
2022/05/13 09:29:17;;;;;;;6.30;1.37;;;;;;;19.36;46.21;99437.98;1637287;87;20907;-67
2022/05/13 09:31:50;;;;;;;6.00;1.50;;;;;;;19.64;45.58;99447.48;1637349;87;21811;-67
2022/05/13 09:34:29;;;;;;;2.45;1.30;;;;;;;19.76;45.60;99442.83;1636107;87;20921;-69
2022/05/13 09:37:04;;;;;;;4.60;1.90;;;;;;;20.28;45.59;99438.78;1637339;87;20953;-68
2022/05/13 09:39:44;;;;;;;6.17;1.65;;;;;;;20.25;44.71;99447.60;1636743;87;20981;-68
2022/05/13 09:42:26;;;;;;;10.93;2.95;;;;;;;20.23;45.46;99434.86;1637247;87;20914;-68
2022/05/13 09:45:17;;;;;;;1.90;1.52;;;;;;;20.11;44.62;99438.78;1637215;87;21205;-69
2022/05/13 09:48:09;;;;;;;6.92;1.50;;;;;;;20.07;44.13;99431.02;1636564;87;20926;-67
2022/05/13 09:50:41;;;;;;;8.58;1.60;;;;;;;19.76;43.08;99429.21;1635262;87;21049;-66
2022/05/13 09:53:26;;;;;;;7.12;2.37;;;;;;;20.02;44.78;99421.08;1629691;87;20910;-69
2022/05/13 09:55:56;;;;;;;7.37;2.25;;;;;;;20.06;43.22;99424.78;1635450;87;21115;-69
2022/05/13 09:58:33;;;;;;;2.77;1.82;;;;;;;19.99;41.07;99422.27;1650267;86;21170;-67
2022/05/13 10:01:09;;;;;;;7.50;1.95;;;;;;;19.81;41.24;99426.34;1647270;86;21430;-68
2022/05/13 10:03:38;;;;;;;3.42;1.67;;;;;;;19.60;42.18;99423.94;1638219;86;21026;-68
2022/05/13 10:06:16;;;;;;;4.60;2.10;;;;;;;19.82;41.96;99424.41;1650966;86;20964;-69
2022/05/13 10:13:57;;;;;;;4.55;1.87;;;;;;;19.95;40.16;99421.32;1651318;86;21015;-66
2022/05/13 10:14:33;;;;;;;5.40;2.07;;;;;;;19.78;39.89;99413.36;1650952;86;21055;-70
2022/05/13 10:17:13;;;;;;;3.05;1.90;;;;;;;20.06;39.77;99413.05;1650879;85;21114;-69
2022/05/13 10:19:55;;;;;;;3.05;1.47;;;;;;;19.77;38.62;99402.78;1648823;86;20937;-70
2022/05/13 10:22:45;;;;;;;7.37;1.80;;;;;;;19.54;39.60;99407.52;1650483;85;20917;-68
2022/05/13 10:25:20;;;;;;;4.78;1.62;;;;;;;19.38;40.05;99393.56;1650621;86;21168;-69
2022/05/13 10:27:51;;;;;;;5.03;2.08;;;;;;;19.39;40.73;99390.52;1650424;86;20990;-69
2022/05/13 10:30:47;;;;;;;4.40;1.32;;;;;;;19.56;40.85;99387.59;1638128;86;21029;-68
2022/05/13 10:33:29;;;;;;;6.50;2.22;;;;;;;19.54;40.86;99395.27;1653164;85;21542;-67
2022/05/13 10:36:13;;;;;;;5.33;1.70;;;;;;;19.58;41.39;99390.80;1627142;87;20969;-67
2022/05/13 10:38:58;;;;;;;6.03;1.70;;;;;;;19.64;40.73;99382.72;1637409;87;21280;-66
2022/05/13 10:41:45;;;;;;;2.55;1.60;;;;;;;19.55;41.44;99386.80;1636468;87;21020;-70
2022/05/13 10:44:38;;;;;;;4.15;1.45;;;;;;;19.55;41.00;99381.36;1637435;87;20965;-68
2022/05/13 10:47:12;;;;;;;4.83;1.80;;;;;;;19.77;41.66;99375.55;1637324;87;21009;-70
2022/05/13 10:49:41;;;;;;;5.97;2.02;;;;;;;20.29;41.50;99367.38;1632554;87;20902;-71
2022/05/13 10:52:34;;;;;;;3.98;1.70;;;;;;;20.11;40.68;99358.41;1637535;87;21157;-69
2022/05/13 10:55:42;;;;;;;7.65;1.72;;;;;;;19.89;40.31;99365.64;1637212;87;20913;-68
2022/05/13 10:58:37;;;;;;;3.30;1.77;;;;;;;19.64;40.95;99361.73;1637217;87;20870;-69
2022/05/13 11:01:28;;;;;;;5.85;1.70;;;;;;;19.66;41.99;99360.06;1637157;87;20929;-72
2022/05/13 11:04:20;;;;;;;2.47;1.40;;;;;;;19.61;42.69;99355.56;1636815;87;21019;-68
2022/05/13 11:07:34;;;;;;;4.90;2.00;;;;;;;19.79;43.16;99353.68;1660634;86;21357;-67
2022/05/13 11:10:27;;;;;;;7.97;2.10;;;;;;;20.03;42.17;99349.12;1662242;86;20908;-69
2022/05/13 11:13:06;;;;;;;3.52;2.15;;;;;;;20.20;42.44;99344.22;1660635;86;20960;-69
2022/05/13 11:15:42;;;;;;;5.83;2.20;;;;;;;20.34;41.59;99343.48;1660633;86;21003;-68
2022/05/13 11:18:29;;;;;;;7.15;2.15;;;;;;;20.24;41.51;99331.56;1660649;86;20892;-68
2022/05/13 11:21:10;;;;;;;6.67;1.92;;;;;;;20.19;42.38;99307.77;1660794;86;21161;-69
2022/05/13 11:26:44;;;;;;;3.47;1.50;;;;;;;20.32;42.29;99319.83;1660535;86;20976;-67
2022/05/13 11:29:19;;;;;;;4.65;1.57;;;;;;;20.36;42.66;99321.36;1660610;86;21454;-66
2022/05/13 11:31:58;;;;;;;3.85;1.40;;;;;;;20.27;42.09;99323.30;1660440;86;20999;-71
2022/05/13 11:34:56;;;;;;;3.95;1.82;;;;;;;20.61;42.40;99318.34;1651881;86;21786;-68
2022/05/13 11:37:23;;;;;;;5.45;1.57;;;;;;;20.43;42.67;99313.48;1660541;86;20999;-69
2022/05/13 11:40:26;;;;;;;10.65;1.62;;;;;;;20.49;42.92;99308.08;1660874;86;20937;-69
2022/05/13 11:43:43;;;;;;;1.85;1.57;;;;;;;20.39;43.04;99331.61;1660591;86;21020;-67
2022/05/13 11:46:33;;;;;;;5.13;2.00;;;;;;;20.40;43.80;99322.29;1661278;86;20904;-68
2022/05/13 11:49:16;;;;;;;3.10;1.77;;;;;;;20.43;43.17;99317.58;1660726;86;21468;-68
2022/05/13 11:51:43;;;;;;;3.45;1.67;;;;;;;20.68;42.98;99315.12;1659483;86;20924;-69
2022/05/13 11:54:17;;;;;;;3.85;1.75;;;;;;;20.58;43.75;99311.36;1660687;86;20952;-70
2022/05/13 11:56:46;;;;;;;2.25;1.80;;;;;;;20.90;43.60;99306.67;1660662;86;20952;-69
2022/05/13 11:59:33;;;;;;;7.95;2.12;;;;;;;20.95;44.66;99311.14;1665143;86;21014;-70
2022/05/13 12:02:45;;;;;;;5.03;1.90;;;;;;;20.78;41.74;99308.50;1665117;86;21189;-67
2022/05/13 12:05:23;;;;;;;7.87;2.15;;;;;;;20.24;43.61;99302.94;1664955;86;20896;-68
2022/05/13 12:08:08;;;;;;;3.40;1.60;;;;;;;20.23;43.91;99301.33;1664992;86;20904;-69
2022/05/13 12:11:06;;;;;;;8.60;2.95;;;;;;;19.96;43.87;99279.91;1664911;86;20991;-70
2022/05/13 12:14:01;;;;;;;6.03;2.02;;;;;;;19.85;45.62;99289.78;1664675;86;21059;-71
2022/05/13 12:16:56;;;;;;;8.25;2.17;;;;;;;20.22;45.15;99285.32;1636091;87;21272;-66
2022/05/13 12:19:47;;;;;;;5.22;1.85;;;;;;;20.67;45.03;99284.30;1643661;87;21003;-68
2022/05/13 12:22:52;;;;;;;14.33;2.83;;;;;;;20.75;45.69;99277.23;1643439;87;21516;-69